Dickinson Theodore Roosevelt Regional Airport
KDIK : now visible

Airfield :











YOU CAN JOIN US ON...

 
LOGIN :

Register | Disclaimer

   EN    FR    IT 

 









Legend :    VFR   Marginal VFR   IFR   Intensive IFR   Very Intensive IFR
Visi :
Ceiling :
>= 8 km
>= 3000ft
5 to 8 km
1000 to 3000 ft
1500m to 5 km
500 to 1000 ft
800 to 1500m
200 to 500 ft
< 800m
< 200 ft
Symbols :   Thunderstorms  Fog  Heavy snow  Heavy precipitations  Wind > 20 kt






- Airport Elevation : 2592 ft


KDIK - Dickinson Theodore Roosevelt Regional

CURRENT METAR :
  • 011456Z AUTO 27010KT 10SM CLR M09/M13 A2993 RMK AO2 SLP184 T10941128 53009 $

EXPIRED METARs :
  • 011356Z AUTO 27008KT 10SM CLR M09/M12 A2991 RMK AO2 SLP179 T10941122 $
  • 011256Z AUTO 27010KT 10SM OVC050 M06/M10 A2990 RMK AO2 SLP173 T10611100 $

TAF KDIK
Valid from the 01 at 12:00 until the 02 at 12:00 UTC


011133Z 0112/0212 26010KT P6SM OVC050
FM020200 31009KT P6SM SCT080
FM020700 35010KT P6SM BKN026
FM020900 36010KT P6SM BKN009
KZMP FIR / North America



MET'MAP, your aeronautical weather chart ! - Copyright ORBIFLY December 2007 - Disclaimer

ORBIFLY MET'MAP TEAM :

Programming & Development : Alexandra Zaïnal
Original concept : Baudouin d'Aumeries
Technical & hardware support : Manuel Goepfert
Assistance : Marc-Olivier Méhu




SOURCES & CREDITS :

   NOAA       Earth
Advisory